Dawson Community Airport
KGDV : rendu visible

Aérodrome :











RETROUVEZ-NOUS SUR...

 
LOGIN :

S'inscrire | Disclaimer

   EN    FR    IT 

 









Légende :    VFR   VFR Marginal   IFR   IFR Intensif   IFR Très Intensif
Visi : 
Plafond : 
>= 8 km
>= 3000ft
5 à 8 km
1000 à 3000 ft
1500m à 5 km
500 à 1000 ft
800 à 1500m
200 à 500 ft
< 800m
< 200 ft
Symboles :   Orages  Brouillard  Fortes neiges  Fortes précipitations  Vent > 20 kt






- Altitude de l'aérodrome : 2458 ft


KGDV - Dawson Community

DERNIER METAR :
  • 150706Z AUTO 20003KT 1/2SM FZFG CLR M02/M02 A3006 RMK AO2 FZRANO

METARs EXPIRÉS :
  • 150647Z AUTO 20003KT 1/4SM FZFG CLR M02/M02 A3006 RMK AO2 400391056 FZRANO
  • 150637Z AUTO 20003KT 1/2SM FZFG VV002 M01/M01 A3006 RMK AO2 FZRANO
  • 150611Z AUTO 00000KT 3/4SM BR CLR M01/M01 A3006 RMK AO2 VIS 1/2V1 1/2 FZRANO
  • 150556Z AUTO 00000KT 5SM BR CLR M01/M01 A3006 RMK AO2 SLP206 T10061006 10033 21011 58004 FZRANO
  • 150507Z AUTO 00000KT 3SM BR CLR 00/M01 A3007 RMK AO2 FZRANO
  • 150456Z AUTO 00000KT 3/4SM BR CLR M01/M01 A3007 RMK AO2 SLP210 T10061006 FZRANO

TAF KGDV
Valide du 15 à 06h jusqu'au 16 à 06h UTC


150520Z 1506/1606 VRB03KT 3/4SM BR BKN070
FM150700 VRB04KT 1/4SM FZFG BKN005
FM151500 VRB05KT 2SM BR BKN025
FM151800 VRB06KT P6SM BKN020
FM160000 22007KT P6SM BKN030



MET'MAP, la Météo Aéronautique d'un coup d'oeil ! - Copyright ORBIFLY Décembre 2007 - Disclaimer

ORBIFLY MET'MAP TEAM :

Programmation & Développement : Alexandra Zaïnal
Conception & Développement : Baudouin d'Aumeries
Co-Programmation & Développement : Marc-Olivier Méhu
Soutien technique & logistique : Manuel Goepfert

Contact : metmap@orbifly.com




SOURCES & CREDITS :

   NOAA       Earth
Advisory